Home > Products > Valid Products > MTR

000
SAUS45 KLKN 220155
MTRP68
METAR KP68 220153Z AUTO 33007KT 26/01 A3005 RMK AO1 SLP087 T02560006





000
SAUS45 KLKN 220054
MTRP68
METAR KP68 220053Z AUTO 31009KT 27/00 A3005 RMK AO1 SLP088 T02670000





000
SAUS45 KLKN 212354
MTRP68
METAR KP68 212353Z AUTO 25009KT 28/M01 A3005 RMK AO1 SLP086
T02781006 10289 20244 56014





000
SAUS45 KLKN 212254
MTRP68
METAR KP68 212253Z AUTO 26008KT 28/M01 A3006 RMK AO1 SLP084
T02781006





000
SAUS45 KLKN 212154
MTRP68
METAR KP68 212153Z AUTO 21005KT 26/M01 A3008 RMK AO1 SLP096
T02611006





000
SAUS45 KLKN 212054
MTRP68
METAR KP68 212053Z AUTO 20009KT 27/00 A3010 RMK AO1 SLP103 T02670000
58012





000
SAUS45 KLKN 211955
MTRP68
METAR KP68 211953Z AUTO 17006G16KT 25/01 A3012 RMK AO1 SLP111
T02500011





000
SAUS45 KLKN 211855
MTRP68
METAR KP68 211853Z AUTO 16007G17KT 25/01 A3013 RMK AO1 SLP114
T02500011





000
SAUS45 KLKN 211754
MTRP68
METAR KP68 211753Z AUTO 18009G18KT 24/01 A3014 RMK AO1 SLP119
T02440006 10244 20150 51002





000
SAUS45 KLKN 211654
MTRP68
METAR KP68 211653Z AUTO 21010KT 23/01 A3014 RMK AO1 SLP122 T02330006





000
SAUS45 KLKN 211554
MTRP68
METAR KP68 211553Z AUTO 00000KT 22/01 A3014 RMK AO1 SLP120 T02220006





000
SAUS45 KLKN 211454
MTRP68
METAR KP68 211453Z AUTO 16009KT 19/03 A3013 RMK AO1 SLP121 T01940028
51011





000
SAUS45 KLKN 211354
MTRP68
METAR KP68 211353Z AUTO 13008KT 17/02 A3013 RMK AO1 SLP119 T01720022





000
SAUS45 KLKN 211254
MTRP68
METAR KP68 211253Z AUTO 30003KT 16/02 A3011 RMK AO1 SLP114 T01610017





000
SAUS45 KLKN 211154
MTRP68
METAR KP68 211153Z AUTO 14006KT 18/02 A3010 RMK AO1 SLP106 70011
T01780017 10206 20167 51006





000
SAUS45 KLKN 211055
MTRP68
METAR KP68 211053Z AUTO 21006KT 19/00 A3009 RMK AO1 SLP102 T01940000





000
SAUS45 KLKN 210955
MTRP68
METAR KP68 210953Z AUTO 16010KT 19/01 A3009 RMK AO1 SLP107 T01890006





000
SAUS45 KLKN 210855
MTRP68
METAR KP68 210853Z AUTO 20010KT 19/01 A3008 RMK AO1 SLP096 T01890006
53006





000
SAUS45 KLKN 210755
MTRP68
METAR KP68 210753Z AUTO 19016KT 19/01 A3007 RMK AO1 SLP089 T01940006
402720100





000
SAUS45 KLKN 210654
MTRP68
METAR KP68 210653Z AUTO 18010KT 19/01 A3006 RMK AO1 SLP089 T01940011





000
SAUS45 KLKN 210554
MTRP68
METAR KP68 210553Z AUTO 00000KT 20/M01 A3005 RMK AO1 SLP088
T02001006 10250 20183 51013





000
SAUS45 KLKN 210455
MTRP68
METAR KP68 210453Z AUTO 13006KT 19/03 A3004 RMK AO1 SLP090 T01890028





000
SAUS45 KLKN 210354
MTRP68
METAR KP68 210353Z AUTO 00000KT 20/06 A3003 RMK AO1 SLP089 T02000056





000
SAUS45 KLKN 210254
MTRP68
METAR KP68 210253Z AUTO 16006KT 21/04 A3001 RMK AO1 SLP082 T02110039
53003





000
SAUS45 KLKN 210154
MTRP68
METAR KP68 210153Z AUTO 19009KT 23/03 A3000 RMK AO1 SLP083 T02330033





000
SAUS45 KLKN 210055
MTRP68
METAR KP68 210053Z AUTO 19008KT 24/05 A3000 RMK AO1 SLP089 T02390050





000
SAUS45 KLKN 202355
MTRP68
METAR KP68 202353Z AUTO 20014KT 24/02 A3000 RMK AO1 SLP079 60011
T02440022 10272 20183 58011





000
SAUS45 KLKN 202254
MTRP68
METAR KP68 202253Z AUTO 14018G28KT 25/04 A2999 RMK AO1 PK WND
15028/2250 SLP079 T02500039





000
SAUS45 KLKN 202154
MTRP68
METAR KP68 202153Z AUTO 22006KT 21/07 A3004 RMK AO1 WSHFT 2056
SLP101 P0011 T02110072





000
SAUS45 KLKN 202115
MTRP68
SPECI KP68 202113Z AUTO 30006G18KT 20/07 A3006 RMK AO1 WSHFT 2056
P0008 T02000072





000
SAUS45 KLKN 202054
MTRP68
METAR KP68 202053Z AUTO 22009KT 26/04 A3003 RMK AO1 SLP084 T02560039
56008





000
SAUS45 KLKN 201954
MTRP68
METAR KP68 201953Z AUTO 16012KT 27/03 A3004 RMK AO1 SLP084 T02720028





000
SAUS45 KLKN 201855
MTRP68
METAR KP68 201853Z AUTO 16006KT 25/03 A3006 RMK AO1 SLP092 T02500028





000
SAUS45 KLKN 201754
MTRP68
METAR KP68 201753Z AUTO 27005KT 24/03 A3006 RMK AO1 SLP097 T02440028
10250 20100 50002





000
SAUS45 KLKN 201654
MTRP68
METAR KP68 201653Z AUTO 00000KT 22/04 A3007 RMK AO1 SLP103 T02170039





000
SAUS45 KLKN 201554
MTRP68
METAR KP68 201553Z AUTO 00000KT 20/04 A3007 RMK AO1 SLP104 T02000044





000
SAUS45 KLKN 201454
MTRP68
METAR KP68 201453Z AUTO 00000KT 18/07 A3006 RMK AO1 SLP106 T01780067
51012





000
SAUS45 KLKN 201355
MTRP68
METAR KP68 201353Z AUTO 15004KT 13/07 A3005 RMK AO1 SLP109 T01280067





000
SAUS45 KLKN 201254
MTRP68
METAR KP68 201253Z AUTO 19004KT 10/06 A3003 RMK AO1 SLP110 T01000061





000
SAUS45 KLKN 201155
MTRP68
METAR KP68 201153Z AUTO 17004KT 13/07 A3002 RMK AO1 SLP098 T01330067
10178 20117 50005





000
SAUS45 KLKN 201055
MTRP68
METAR KP68 201053Z AUTO 00000KT 12/07 A3002 RMK AO1 SLP095 T01220072





000
SAUS45 KLKN 200955
MTRP68
METAR KP68 200953Z AUTO 00000KT 14/07 A3002 RMK AO1 SLP087 T01390067





000
SAUS45 KLKN 200855
MTRP68
METAR KP68 200853Z AUTO 16010KT 17/07 A3000 RMK AO1 SLP078 T01670067
58006





000
SAUS45 KLKN 200754
MTRP68
METAR KP68 200753Z AUTO 20008KT 16/06 A3000 RMK AO1 SLP073 T01610061
402780161





000
SAUS45 KLKN 200655
MTRP68
METAR KP68 200653Z AUTO 16008KT 17/07 A3001 RMK AO1 SLP076 T01670067





000
SAUS45 KLKN 200554
MTRP68
METAR KP68 200553Z AUTO 15008KT 17/07 A3002 RMK AO1 SLP079 T01670072
10194 20167 51010





000
SAUS45 KLKN 200455
MTRP68
METAR KP68 200453Z AUTO 16007KT 17/07 A3001 RMK AO1 SLP079 T01670067





000
SAUS45 KLKN 200355
MTRP68
METAR KP68 200353Z AUTO 15013G19KT 17/07 A3000 RMK AO1 SLP079
T01720067





000
SAUS45 KLKN 200257 COR
MTRP68
METAR KP68 200253Z AUTO 15015KT 18/07 A2998 RMK AO1 SLP077 T01780072
55006





000
SAUS45 KLKN 200256 COR
MTRP68
METAR KP68 200253Z AUTO 15015KT 18/07 A2998 RMK AO1 SLP077 T01780072
55006





000
SAUS45 KLKN 200255 COR
MTRP68
METAR KP68 200253Z AUTO 15015KT 18/07 A2998 RMK AO1 SLP077 T01780072
55006





000
SAUS45 KLKN 200154
MTRP68
METAR KP68 200153Z AUTO 19011KT 19/06 A2996 RMK AO1 SLP066 T01940061





000
SAUS45 KLKN 200055
MTRP68
METAR KP68 200053Z AUTO 14013KT 18/08 A2998 RMK AO1 SLP080 T01830078





000
SAUS45 KLKN 192355
MTRP68
METAR KP68 192353Z AUTO 23012G19KT 19/07 A3000 RMK AO1 PK WND
23026/2339 WSHFT 2253 SLP081 T01890067 10278 20178 53015





000
SAUS45 KLKN 192312
MTRP68
SPECI KP68 192310Z AUTO 26016KT 20/06 A2996 RMK AO1 WSHFT 2253
T02000056





000
SAUS45 KLKN 192255
MTRP68
METAR KP68 192253Z AUTO 27010G15KT 22/07 A2994 RMK AO1 SLP053
T02220072





000
SAUS45 KLKN 192201 COR
MTRP68





000
SAUS45 KLKN 192200 COR
MTRP68
METAR KP68 192153Z AUTO 17005KT 23/07 A2993 RMK AO1 SLP048 T02330067





000
SAUS45 KLKN 192156 COR
MTRP68
METAR KP68 192153Z AUTO 17005KT 23/07 A2993 RMK AO1 SLP048 T02330067





000
SAUS45 KLKN 192055
MTRP68
METAR KP68 192053Z AUTO 14013KT 22/08 A2995 RMK AO1 SLP057 T02220078
55010





000
SAUS45 KLKN 191955
MTRP68
METAR KP68 191953Z AUTO 00000KT 26/04 A2994 RMK AO1 SLP044 T02610044





000
SAUS45 KLKN 191855
MTRP68
METAR KP68 191853Z AUTO VRB04KT 26/06 A2997 RMK AO1 SLP050 T02610056





000
SAUS45 KLKN 191754
MTRP68
METAR KP68 191753Z AUTO 13006KT 26/08 A2999 RMK AO1 SLP061 T02560083
10256 20172 58008





000
SAUS45 KLKN 191654
MTRP68
METAR KP68 191653Z AUTO 13007KT 23/09 A3000 RMK AO1 SLP063 T02330094





000
SAUS45 KLKN 191554
MTRP68
METAR KP68 191553Z AUTO 15011KT 22/11 A3001 RMK AO1 SLP076 T02170106





000
SAUS45 KLKN 191454
MTRP68
METAR KP68 191453Z AUTO 00000KT 18/09 A3001 RMK AO1 SLP086 T01830094
53003





000
SAUS45 KLKN 191354
MTRP68
METAR KP68 191353Z AUTO 15012KT 18/09 A3001 RMK AO1 SLP076 T01780089





000
SAUS45 KLKN 191254
MTRP68
METAR KP68 191253Z AUTO 17006KT 17/09 A3000 RMK AO1 SLP071 T01720089





000
SAUS45 KLKN 191154
MTRP68
METAR KP68 191153Z AUTO 15013KT 19/09 A3000 RMK AO1 SLP065 7////
T01940094 10228 20172 50000





000
SAUS45 KLKN 191054
MTRP68
METAR KP68 191053Z AUTO 15008KT 19/09 A3001 RMK AO1 SLP065 T01940089





000
SAUS45 KLKN 190955
MTRP68
METAR KP68 190953Z AUTO 19007KT 18/06 A3000 RMK AO1 SLP062 T01830061





000
SAUS45 KLKN 190854
MTRP68
METAR KP68 190853Z AUTO 13005KT 19/04 A3000 RMK AO1 SLP063 T01890039
50000





000
SAUS45 KLKN 190755
MTRP68
METAR KP68 190753Z AUTO 17007KT 20/03 A3001 RMK AO1 SLP064 T02000033
403170089





000
SAUS45 KLKN 190655
MTRP68
METAR KP68 190653Z AUTO 18007KT 23/03 A3000 RMK AO1 SLPNO T02280028





000
SAUS45 KLKN 190554
MTRP68
METAR KP68 190553Z AUTO 16007KT 21/04 A3000 RMK AO1 SLP063 T02110039
10300 20194 58007





000
SAUS45 KLKN 190455
MTRP68
METAR KP68 190453Z AUTO 10010KT 24/02 A3001 RMK AO1 SLP066 T02440022





000
SAUS45 KLKN 190355
MTRP68
METAR KP68 190353Z AUTO 00000KT 21/07 A3003 RMK AO1 SLP080 T02060072





000
SAUS45 KLKN 190255
MTRP68
METAR KP68 190253Z AUTO 09005KT 19/08 A3003 RMK AO1 SLP092 T01940083
53008





    US Dept of Commerce
    National Oceanic and Atmospheric Administration
    National Weather Service
    1325 East West Highway
    Silver Spring, MD 20910
    Page Author: NWS Internet Services Team
Disclaimer
Information Quality
Credits
Glossary
Privacy Policy
Freedom of Information Act (FOIA)
About Us
Career Opportunities